Ash Shaykh Uthman, Yemen
Current Conditions -  °F | °C
As of 6:00 AM on Wednesday 22 Oct 2014 (Local Time) from OYAA Reporting Station
Scattered Clouds Scattered Clouds  
Wind Chill: 26°   Ceiling: Unl
Heat Index: 26°   Visibility: 6mi
Dew Point: 14°   Wind: 6mph
Humidity: 47%   Direction: 60°ENE
Pressure: 29.94"   Gusts: NA
Location:  12.87°N, 44.98°E
Report Text: OYAA 220300Z 06005KT 9999 FEW020 SCT200 26/14 Q1014 NOSIG
Loading
Personal Weather Stations






























Interactive Weather Map
Tropical Storm Tracking
New forecast layout! Learn more

10-Day Weather Forecast

Advertisements
Track Severe Weather on mobile